Time;durP1;ratioP1;P1;durP2;ratioP2;P2;SDS_P1;SDS_P2;PMS_P1;PMS_P2;Temp;Humidity;BMP_temperature;BMP_pressure;BME280_temperature;BME280_humidity;BME280_pressure;Samples;Min_cycle;Max_cycle;Signal;HPM_P1;HPM_P2
2022/10/18 00:00:07;;;;;;;111.32;30.13;;;14.60;99.90;;;;;;5039643;27;89255;-73
2022/10/18 00:02:36;;;;;;;163.50;34.65;;;14.60;99.90;;;;;;5060145;27;88490;-73
2022/10/18 00:05:04;;;;;;;147.82;32.65;;;14.60;99.90;;;;;;5059107;27;88763;-73
2022/10/18 00:07:31;;;;;;;184.25;35.28;;;14.60;99.90;;;;;;5060321;27;89483;-73
2022/10/18 00:09:58;;;;;;;222.45;37.70;;;14.60;99.90;;;;;;5060188;27;88495;-73
2022/10/18 00:12:25;;;;;;;181.98;35.53;;;14.60;99.90;;;;;;5059155;27;88961;-73
2022/10/18 00:14:52;;;;;;;106.72;30.52;;;14.60;99.90;;;;;;5060499;27;88807;-73
2022/10/18 00:17:19;;;;;;;161.25;36.47;;;14.60;99.90;;;;;;5060530;27;89364;-74
2022/10/18 00:19:47;;;;;;;111.20;31.55;;;14.60;99.90;;;;;;5059550;27;89049;-73
2022/10/18 00:22:13;;;;;;;266.42;41.67;;;14.60;99.90;;;;;;5060189;27;88476;-73
2022/10/18 00:24:40;;;;;;;59.33;27.42;;;14.60;99.90;;;;;;5058284;27;92401;-73
2022/10/18 00:27:07;;;;;;;134.63;31.80;;;14.50;99.90;;;;;;5058764;27;91135;-73
2022/10/18 00:29:34;;;;;;;120.55;32.45;;;14.50;99.90;;;;;;5041602;27;90864;-73
2022/10/18 00:32:01;;;;;;;97.78;31.98;;;14.50;99.90;;;;;;5060163;27;89084;-73
2022/10/18 00:34:28;;;;;;;93.13;31.20;;;14.50;99.90;;;;;;5041381;27;91619;-73
2022/10/18 00:36:55;;;;;;;123.47;32.30;;;14.50;99.90;;;;;;5058688;27;89548;-73
2022/10/18 00:39:22;;;;;;;118.43;33.92;;;14.50;99.90;;;;;;5058558;27;88915;-73
2022/10/18 00:41:49;;;;;;;65.32;28.38;;;14.50;99.90;;;;;;5058461;27;88591;-73
2022/10/18 00:44:16;;;;;;;52.70;26.83;;;14.40;99.90;;;;;;5058275;27;90493;-73
2022/10/18 00:46:46;;;;;;;48.75;26.83;;;14.40;99.90;;;;;;5059328;27;96121;-73
2022/10/18 00:49:19;;;;;;;69.55;28.98;;;14.40;99.90;;;;;;5059442;27;89071;-73
2022/10/18 00:51:55;;;;;;;62.75;29.05;;;14.40;99.90;;;;;;5059607;27;88499;-73
2022/10/18 00:54:22;;;;;;;58.42;28.00;;;14.40;99.90;;;;;;5058575;27;88737;-73
2022/10/18 00:56:49;;;;;;;49.15;25.77;;;14.40;99.90;;;;;;5058119;27;90951;-73
2022/10/18 00:59:18;;;;;;;65.35;28.70;;;14.40;99.90;;;;;;5058359;27;88990;-74
2022/10/18 01:01:45;;;;;;;49.67;26.38;;;14.40;99.90;;;;;;5058167;27;88552;-73
2022/10/18 01:04:17;;;;;;;81.68;32.85;;;14.40;99.90;;;;;;5059446;27;88885;-73
2022/10/18 01:06:57;;;;;;;68.13;28.60;;;14.40;99.90;;;;;;5058049;27;91917;-73
2022/10/18 01:09:57;;;;;;;81.97;31.90;;;14.40;99.90;;;;;;5059396;27;89176;-73
2022/10/18 01:13:02;;;;;;;66.85;27.88;;;14.40;99.90;;;;;;5059206;27;88442;-73
2022/10/18 01:15:42;;;;;;;45.10;24.15;;;14.40;99.90;;;;;;5047129;27;89525;-73
2022/10/18 01:18:18;;;;;;;71.88;29.38;;;14.30;99.90;;;;;;5058032;27;89091;-73
2022/10/18 01:21:10;;;;;;;73.95;29.63;;;14.30;99.90;;;;;;5057355;27;91807;-73
2022/10/18 01:23:52;;;;;;;77.50;30.15;;;14.40;99.90;;;;;;5057563;27;90943;-73
2022/10/18 01:26:34;;;;;;;56.00;26.50;;;14.40;99.90;;;;;;5059493;27;88913;-73
2022/10/18 01:29:28;;;;;;;61.10;27.08;;;14.40;99.90;;;;;;5057522;27;92019;-73
2022/10/18 01:32:01;;;;;;;72.03;29.45;;;14.30;99.90;;;;;;5057896;27;89722;-73
2022/10/18 01:34:35;;;;;;;58.72;27.00;;;14.30;99.90;;;;;;5059410;27;88461;-73
2022/10/18 01:37:07;;;;;;;72.13;29.58;;;14.40;99.90;;;;;;5059187;27;88931;-73
2022/10/18 01:39:38;;;;;;;73.47;29.40;;;14.30;99.90;;;;;;5059045;27;89379;-73
2022/10/18 01:42:10;;;;;;;98.10;31.85;;;14.30;99.90;;;;;;5057209;27;91501;-73
2022/10/18 01:44:39;;;;;;;64.90;28.33;;;14.30;99.90;;;;;;5059140;27;88540;-74
2022/10/18 01:47:09;;;;;;;66.35;28.95;;;14.30;99.90;;;;;;5057341;27;91471;-73
2022/10/18 01:49:36;;;;;;;101.63;32.22;;;14.30;99.90;;;;;;5057102;27;92319;-73
2022/10/18 01:52:03;;;;;;;85.25;31.40;;;14.20;99.90;;;;;;5058548;27;88778;-73
2022/10/18 01:54:34;;;;;;;83.60;30.95;;;14.20;99.90;;;;;;5040633;27;91258;-73
2022/10/18 01:57:21;;;;;;;74.75;29.77;;;14.20;99.90;;;;;;5057384;27;88795;-73
2022/10/18 01:59:51;;;;;;;77.75;29.33;;;14.20;99.90;;;;;;5058651;27;89153;-73
2022/10/18 02:02:23;;;;;;;101.60;33.38;;;14.10;99.90;;;;;;5057167;27;91666;-73
2022/10/18 02:05:22;;;;;;;121.32;35.15;;;14.20;99.90;;;;;;5056989;27;89866;-73
2022/10/18 02:08:05;;;;;;;102.80;32.35;;;14.20;99.90;;;;;;5002278;27;92611;-73
2022/10/18 02:10:58;;;;;;;98.25;31.33;;;14.10;99.90;;;;;;5041840;27;92131;-73
2022/10/18 02:13:32;;;;;;;130.43;33.42;;;14.10;99.90;;;;;;5056826;27;91849;-73
2022/10/18 02:16:06;;;;;;;112.53;33.10;;;14.10;99.90;;;;;;5058398;27;88593;-73
2022/10/18 02:18:39;;;;;;;177.30;37.20;;;14.10;99.90;;;;;;5057373;27;88488;-73
2022/10/18 02:21:09;;;;;;;152.68;35.55;;;14.00;99.90;;;;;;5058418;27;89355;-73
2022/10/18 02:23:37;;;;;;;127.35;31.00;;;14.10;99.90;;;;;;5057536;27;88657;-73
2022/10/18 02:26:05;;;;;;;245.45;37.50;;;14.10;99.90;;;;;;5056498;27;91155;-73
2022/10/18 02:28:32;;;;;;;257.92;38.10;;;14.10;99.90;;;;;;5056983;27;88804;-73
2022/10/18 02:31:36;;;;;;;441.80;51.55;;;14.10;99.90;;;;;;5056274;27;92378;-73
2022/10/18 02:34:24;;;;;;;258.60;38.25;;;14.10;99.90;;;;;;5057828;27;88852;-73
2022/10/18 02:36:54;;;;;;;366.33;45.00;;;14.10;99.90;;;;;;5058067;27;88647;-73
2022/10/18 02:39:31;;;;;;;426.85;51.00;;;14.10;99.90;;;;;;5058095;27;88920;-73
2022/10/18 02:41:58;;;;;;;422.95;48.10;;;14.10;99.90;;;;;;5056532;27;92148;-73
2022/10/18 02:44:25;;;;;;;338.05;43.00;;;14.10;99.90;;;;;;5056664;27;88931;-73
2022/10/18 02:46:53;;;;;;;257.27;37.15;;;14.10;99.90;;;;;;5057797;27;88559;-73
2022/10/18 02:49:20;;;;;;;385.83;45.47;;;14.10;99.90;;;;;;5056690;27;88629;-73
2022/10/18 02:51:47;;;;;;;390.70;45.03;;;14.10;99.90;;;;;;5058202;27;89464;-73
2022/10/18 02:54:13;;;;;;;383.05;46.60;;;14.10;99.90;;;;;;5039228;27;91583;-73
2022/10/18 02:56:40;;;;;;;344.75;43.65;;;14.10;99.90;;;;;;5056040;27;104068;-73
2022/10/18 02:59:07;;;;;;;299.95;40.50;;;14.10;99.90;;;;;;5038995;27;92140;-73
2022/10/18 03:01:37;;;;;;;419.30;47.65;;;14.10;99.90;;;;;;5057500;27;89361;-73
2022/10/18 03:04:04;;;;;;;238.93;32.47;;;14.10;99.90;;;;;;5056069;27;92192;-73
2022/10/18 03:06:32;;;;;;;277.33;37.00;;;14.10;99.90;;;;;;5022836;27;91278;-73
2022/10/18 03:09:02;;;;;;;312.25;38.50;;;14.10;99.90;;;;;;5057522;27;88806;-73
2022/10/18 03:11:29;;;;;;;358.98;42.22;;;14.10;99.90;;;;;;5057830;27;89609;-73
2022/10/18 03:13:56;;;;;;;385.70;42.22;;;14.10;99.90;;;;;;5057517;27;89293;-73
2022/10/18 03:16:23;;;;;;;360.73;42.25;;;14.10;99.90;;;;;;5057890;27;88446;-73
2022/10/18 03:18:50;;;;;;;271.48;36.65;;;14.10;99.90;;;;;;5057289;27;88822;-73
2022/10/18 03:21:17;;;;;;;343.10;39.80;;;14.20;99.90;;;;;;5055826;27;89441;-73
2022/10/18 03:23:44;;;;;;;484.08;50.90;;;14.10;99.90;;;;;;5057155;27;89118;-73
2022/10/18 03:26:11;;;;;;;325.00;39.00;;;14.10;99.90;;;;;;5055775;27;90959;-73
2022/10/18 03:28:38;;;;;;;260.90;32.75;;;14.10;99.90;;;;;;5056280;27;88745;-73
2022/10/18 03:31:05;;;;;;;285.00;35.17;;;14.10;99.90;;;;;;5057073;27;89508;-73
2022/10/18 03:33:32;;;;;;;258.48;33.35;;;14.10;99.90;;;;;;5038947;27;91613;-73
2022/10/18 03:35:59;;;;;;;359.83;40.13;;;14.10;99.90;;;;;;5060682;27;88566;-73
2022/10/18 03:38:26;;;;;;;252.65;33.67;;;14.10;99.90;;;;;;5059666;27;88581;-73
2022/10/18 03:40:53;;;;;;;303.17;37.00;;;14.10;99.90;;;;;;5059471;27;93175;-73
2022/10/18 03:43:20;;;;;;;270.40;35.47;;;14.10;99.90;;;;;;5060814;27;88759;-73
2022/10/18 03:45:47;;;;;;;262.75;34.20;;;14.10;99.90;;;;;;5059325;27;91266;-73
2022/10/18 03:48:14;;;;;;;240.32;34.63;;;14.00;99.90;;;;;;5060130;27;89483;-73
2022/10/18 03:50:42;;;;;;;242.10;35.97;;;14.10;99.90;;;;;;5060787;27;89493;-73
2022/10/18 03:53:09;;;;;;;317.23;39.70;;;14.00;99.90;;;;;;5042502;27;89052;-73
2022/10/18 03:55:36;;;;;;;280.42;34.63;;;14.00;99.90;;;;;;5059272;27;91325;-73
2022/10/18 03:58:03;;;;;;;365.75;44.00;;;14.00;99.90;;;;;;5059885;27;101298;-73
2022/10/18 04:00:30;;;;;;;206.10;31.48;;;14.00;99.90;;;;;;5060716;27;89572;-73
2022/10/18 04:02:57;;;;;;;176.07;26.63;;;14.00;99.90;;;;;;5059231;27;88720;-73
2022/10/18 04:05:26;;;;;;;285.52;37.88;;;14.00;99.90;;;;;;5059297;27;88958;-73
2022/10/18 04:07:53;;;;;;;183.63;30.20;;;14.00;99.90;;;;;;5042566;27;88895;-73
2022/10/18 04:10:21;;;;;;;187.15;31.52;;;13.90;99.90;;;;;;5060315;27;89591;-73
2022/10/18 04:12:47;;;;;;;262.75;36.10;;;13.90;99.90;;;;;;5059046;27;88916;-73
2022/10/18 04:15:14;;;;;;;257.00;35.13;;;14.00;99.90;;;;;;5042118;27;90859;-73
2022/10/18 04:17:41;;;;;;;233.55;35.75;;;13.90;99.90;;;;;;5058250;27;91353;-73
2022/10/18 04:20:09;;;;;;;293.45;38.22;;;14.00;99.90;;;;;;5060175;27;89383;-73
2022/10/18 04:22:36;;;;;;;302.40;35.35;;;14.00;99.90;;;;;;5060265;27;88874;-73
2022/10/18 04:25:03;;;;;;;290.45;36.22;;;14.00;99.90;;;;;;5058488;27;98794;-73
2022/10/18 04:27:30;;;;;;;318.92;38.92;;;14.00;99.90;;;;;;5060032;27;88871;-73
2022/10/18 04:29:57;;;;;;;368.38;43.92;;;14.00;99.90;;;;;;5060277;27;88454;-73
2022/10/18 04:32:26;;;;;;;235.25;36.05;;;14.00;99.90;;;;;;5058484;27;90059;-73
2022/10/18 04:34:53;;;;;;;207.50;29.95;;;14.00;99.90;;;;;;5060036;27;88520;-73
2022/10/18 04:37:20;;;;;;;259.35;37.03;;;14.00;99.90;;;;;;5059581;27;89608;-73
2022/10/18 04:39:47;;;;;;;274.45;37.58;;;14.00;99.90;;;;;;5041770;27;92091;-73
2022/10/18 04:42:16;;;;;;;216.27;34.72;;;14.00;99.90;;;;;;5059628;27;89114;-73
2022/10/18 04:44:43;;;;;;;207.70;34.03;;;14.00;99.90;;;;;;5058458;27;88553;-73
2022/10/18 04:47:10;;;;;;;179.27;32.92;;;13.90;99.90;;;;;;5057438;27;91625;-73
2022/10/18 04:49:37;;;;;;;155.85;29.10;;;13.90;99.90;;;;;;5041653;27;92097;-73
2022/10/18 04:52:04;;;;;;;155.38;29.60;;;13.90;99.90;;;;;;5058500;27;89065;-73
2022/10/18 04:54:31;;;;;;;165.57;29.40;;;13.90;99.90;;;;;;5059776;27;88562;-73
2022/10/18 04:56:58;;;;;;;161.25;30.15;;;13.90;99.90;;;;;;5059468;27;98579;-73
2022/10/18 04:59:25;;;;;;;192.02;32.08;;;13.90;99.90;;;;;;5057900;27;89592;-73
2022/10/18 05:01:52;;;;;;;153.85;30.33;;;13.90;99.90;;;;;;5059213;27;89001;-73
2022/10/18 05:04:19;;;;;;;173.85;31.08;;;13.90;99.90;;;;;;5059388;27;88486;-73
2022/10/18 05:06:46;;;;;;;117.90;27.15;;;13.90;99.90;;;;;;5059655;27;89099;-73
2022/10/18 05:09:13;;;;;;;130.15;29.20;;;13.90;99.90;;;;;;5059187;27;89439;-73
2022/10/18 05:11:40;;;;;;;129.25;28.45;;;13.90;99.90;;;;;;5041463;27;88656;-73
2022/10/18 05:14:09;;;;;;;180.23;31.48;;;13.90;99.90;;;;;;5058322;27;88606;-73
2022/10/18 05:16:36;;;;;;;116.43;26.20;;;13.90;99.90;;;;;;5059147;27;89278;-73
2022/10/18 05:19:04;;;;;;;135.95;28.23;;;13.90;99.90;;;;;;5059055;27;88630;-73
2022/10/18 05:21:32;;;;;;;104.97;26.00;;;13.90;99.90;;;;;;5074541;27;91588;-73
2022/10/18 05:23:59;;;;;;;97.80;25.15;;;13.90;99.90;;;;;;5058937;27;98546;-73
2022/10/18 05:26:26;;;;;;;112.38;27.55;;;13.90;99.90;;;;;;5057101;27;92227;-73
2022/10/18 05:28:53;;;;;;;187.30;33.33;;;13.90;99.90;;;;;;5057729;27;92151;-73
2022/10/18 05:31:20;;;;;;;195.90;34.08;;;13.90;99.90;;;;;;5057583;27;88874;-73
2022/10/18 05:33:47;;;;;;;92.90;26.23;;;13.90;99.90;;;;;;5057568;27;91566;-73
2022/10/18 05:36:14;;;;;;;75.40;23.10;;;13.90;99.90;;;;;;5058749;27;88769;-73
2022/10/18 05:38:42;;;;;;;98.85;24.42;;;13.90;99.90;;;;;;5057411;27;91291;-73
2022/10/18 05:41:09;;;;;;;104.05;26.77;;;13.90;99.90;;;;;;5057602;27;89006;-73
2022/10/18 05:43:37;;;;;;;88.45;22.67;;;13.90;99.90;;;;;;5058991;27;88465;-73
2022/10/18 05:46:06;;;;;;;155.60;27.38;;;14.00;99.90;;;;;;5057505;27;89786;-73
2022/10/18 05:48:37;;;;;;;182.57;29.57;;;14.00;99.90;;;;;;5058909;27;89515;-73
2022/10/18 05:51:04;;;;;;;81.88;23.38;;;14.00;99.90;;;;;;5057193;27;91599;-73
2022/10/18 05:53:31;;;;;;;142.40;26.33;;;14.00;99.90;;;;;;5039676;27;103918;-73
2022/10/18 05:56:04;;;;;;;139.57;26.83;;;14.00;99.90;;;;;;5058924;27;88845;-73
2022/10/18 05:58:31;;;;;;;87.70;21.20;;;14.00;99.90;;;;;;5056099;27;89358;-73
2022/10/18 06:00:59;;;;;;;106.25;24.42;;;14.00;99.90;;;;;;5058949;27;88945;-73
2022/10/18 06:03:27;;;;;;;136.68;26.08;;;14.00;99.90;;;;;;5057055;27;88555;-73
2022/10/18 06:06:01;;;;;;;197.23;30.35;;;14.00;99.90;;;;;;5058553;27;89003;-73
2022/10/18 06:08:28;;;;;;;;;;;14.00;99.90;;;;;;5059071;27;88548;-73
2022/10/18 06:10:55;;;;;;;113.95;23.00;;;13.90;99.90;;;;;;5059128;27;91504;-73
2022/10/18 06:13:22;;;;;;;154.57;24.48;;;13.90;99.90;;;;;;5057127;27;88548;-73
2022/10/18 06:15:54;;;;;;;126.85;23.88;;;13.90;99.90;;;;;;5058202;27;89351;-73
2022/10/18 06:18:21;;;;;;;208.38;25.35;;;14.00;99.90;;;;;;5057641;27;89497;-73
2022/10/18 06:20:48;;;;;;;124.97;20.30;;;14.00;99.90;;;;;;5058349;27;88593;-73
2022/10/18 06:23:15;;;;;;;155.55;25.42;;;14.00;99.90;;;;;;5056778;27;90671;-73
2022/10/18 06:25:42;;;;;;;149.85;21.70;;;14.00;99.90;;;;;;5057873;27;88926;-73
2022/10/18 06:28:09;;;;;;;210.85;24.77;;;14.00;99.90;;;;;;5056721;27;91940;-73
2022/10/18 06:30:37;;;;;;;177.13;24.88;;;14.00;99.90;;;;;;5056672;27;89099;-73
2022/10/18 06:33:04;;;;;;;132.23;20.65;;;14.00;99.90;;;;;;5040018;27;91126;-73
2022/10/18 06:35:31;;;;;;;148.70;22.77;;;14.00;99.90;;;;;;5056264;27;91192;-73
2022/10/18 06:37:57;;;;;;;212.43;26.67;;;14.00;99.90;;;;;;5058254;27;89460;-73
2022/10/18 06:40:24;;;;;;;308.73;33.17;;;14.00;99.90;;;;;;5057736;27;89244;-73
2022/10/18 06:42:51;;;;;;;224.50;25.05;;;14.00;99.90;;;;;;5039465;27;99452;-73
2022/10/18 06:45:25;;;;;;;224.68;27.42;;;14.00;99.90;;;;;;5056325;27;90587;-73
2022/10/18 06:47:52;;;;;;;171.02;25.05;;;14.10;99.90;;;;;;5055727;27;106110;-73
2022/10/18 06:50:19;;;;;;;163.23;23.60;;;14.10;99.90;;;;;;5056699;27;88998;-73
2022/10/18 06:52:47;;;;;;;184.80;21.73;;;14.10;99.90;;;;;;5039612;27;88627;-73
2022/10/18 06:55:14;;;;;;;154.93;21.60;;;14.10;99.90;;;;;;5039721;27;91222;-73
2022/10/18 06:57:41;;;;;;;149.75;20.92;;;14.10;99.90;;;;;;5056225;27;92261;-73
2022/10/18 07:00:08;;;;;;;126.78;19.15;;;14.10;99.90;;;;;;5056691;27;88936;-73
2022/10/18 07:02:36;;;;;;;169.50;21.40;;;14.10;99.90;;;;;;5056097;27;88452;-73
2022/10/18 07:05:03;;;;;;;165.73;21.50;;;14.10;99.90;;;;;;5057513;27;89573;-73
2022/10/18 07:07:30;;;;;;;135.60;20.00;;;14.10;99.90;;;;;;5057196;27;89456;-73
2022/10/18 07:09:57;;;;;;;150.30;19.85;;;14.10;99.90;;;;;;5057155;27;88549;-73
2022/10/18 07:12:24;;;;;;;128.52;17.23;;;14.10;99.90;;;;;;5056197;27;90667;-73
2022/10/18 07:14:51;;;;;;;142.23;18.58;;;14.10;99.90;;;;;;5056732;27;97149;-73
2022/10/18 07:17:18;;;;;;;171.85;21.02;;;14.20;99.90;;;;;;5055974;27;92014;-74
2022/10/18 07:19:45;;;;;;;114.95;17.10;;;14.20;99.90;;;;;;5055466;27;90258;-73
2022/10/18 07:22:12;;;;;;;96.97;16.15;;;14.20;99.90;;;;;;5057810;27;89054;-73
2022/10/18 07:24:39;;;;;;;135.80;16.88;;;14.20;99.90;;;;;;5056855;27;88554;-73
2022/10/18 07:27:06;;;;;;;89.78;13.55;;;14.30;99.90;;;;;;5057069;27;89262;-73
2022/10/18 07:29:36;;;;;;;98.93;15.80;;;14.30;99.90;;;;;;5055617;27;89023;-73
2022/10/18 07:32:04;;;;;;;102.28;16.02;;;14.40;99.90;;;;;;5057438;27;88431;-73
2022/10/18 07:34:31;;;;;;;62.58;13.13;;;14.40;99.90;;;;;;5057030;27;88901;-73
2022/10/18 07:36:58;;;;;;;70.10;12.93;;;14.50;99.90;;;;;;5057258;27;89513;-73
2022/10/18 07:39:25;;;;;;;72.15;13.00;;;14.50;99.90;;;;;;5056951;27;89019;-73
2022/10/18 07:41:52;;;;;;;79.53;14.45;;;14.60;99.90;;;;;;5056794;27;88972;-73
2022/10/18 07:44:19;;;;;;;73.55;12.32;;;14.70;99.90;;;;;;5057343;27;88720;-73
2022/10/18 07:46:46;;;;;;;58.13;12.38;;;14.70;99.90;;;;;;5055486;27;99989;-73
2022/10/18 07:49:13;;;;;;;48.75;11.70;;;14.80;99.90;;;;;;5049718;27;89062;-73
2022/10/18 07:51:40;;;;;;;62.95;12.13;;;14.90;99.90;;;;;;5035353;28;88518;-73
2022/10/18 07:54:07;;;;;;;86.72;13.38;;;14.90;99.90;;;;;;5036565;28;89680;-73
2022/10/18 07:56:34;;;;;;;82.80;15.57;;;15.00;99.90;;;;;;5036496;28;89161;-73
2022/10/18 07:59:01;;;;;;;66.00;12.30;;;15.00;99.90;;;;;;5035117;28;91533;-73
2022/10/18 08:01:28;;;;;;;31.17;11.20;;;15.10;99.90;;;;;;5052133;27;90885;-73
2022/10/18 08:03:56;;;;;;;37.13;10.90;;;15.20;99.90;;;;;;5035011;28;91441;-73
2022/10/18 08:06:22;;;;;;;76.57;12.52;;;15.20;99.90;;;;;;5036297;28;89548;-73
2022/10/18 08:08:51;;;;;;;60.35;11.63;;;15.20;99.90;;;;;;5034500;28;104052;-73
2022/10/18 08:11:20;;;;;;;49.33;11.55;;;15.20;99.90;;;;;;5036446;28;88937;-73
2022/10/18 08:13:47;;;;;;;50.10;11.85;;;15.20;99.90;;;;;;5036205;28;88490;-73
2022/10/18 08:16:22;;;;;;;26.15;10.73;;;15.30;99.90;;;;;;5051857;27;91840;-73
2022/10/18 08:18:49;;;;;;;14.70;10.27;;;15.40;99.90;;;;;;5035699;28;90835;-74
2022/10/18 08:21:18;;;;;;;12.80;9.25;;;15.50;99.90;;;;;;5036111;27;88473;-73
2022/10/18 08:23:45;;;;;;;13.32;9.85;;;15.60;99.90;;;;;;5038822;28;91309;-73
2022/10/18 08:26:15;;;;;;;13.23;9.18;;;15.70;99.90;;;;;;5039238;28;91432;-73
2022/10/18 08:28:42;;;;;;;12.70;8.80;;;15.80;99.90;;;;;;5022466;28;89712;-74
2022/10/18 08:31:17;;;;;;;14.68;9.10;;;15.90;99.90;;;;;;5039274;28;90941;-73
2022/10/18 08:33:44;;;;;;;9.98;8.80;;;15.90;99.90;;;;;;5039750;28;104084;-73
2022/10/18 08:36:14;;;;;;;13.35;8.93;;;15.90;99.90;;;;;;5040831;28;88725;-73
2022/10/18 08:38:41;;;;;;;13.23;8.95;;;15.90;99.90;;;;;;5040500;28;88182;-73
2022/10/18 08:41:38;;;;;;;15.95;9.30;;;15.70;99.90;;;;;;5038719;28;91169;-74
2022/10/18 08:44:27;;;;;;;14.48;10.48;;;15.70;99.90;;;;;;5028916;27;89411;-74
2022/10/18 08:47:09;;;;;;;18.85;10.38;;;15.70;99.90;;;;;;5038133;28;89353;-73
2022/10/18 08:49:53;;;;;;;15.63;10.35;;;15.70;99.90;;;;;;5038419;28;88529;-73
2022/10/18 08:52:35;;;;;;;15.03;9.97;;;15.60;99.90;;;;;;5055464;27;89112;-74
2022/10/18 08:55:09;;;;;;;12.55;8.45;;;15.70;99.90;;;;;;5038027;28;88590;-73
2022/10/18 08:57:36;;;;;;;17.13;10.18;;;15.60;99.90;;;;;;5040259;27;88530;-73
2022/10/18 09:00:16;;;;;;;19.58;10.68;;;15.60;99.90;;;;;;5038183;28;88991;-73
2022/10/18 09:03:11;;;;;;;17.20;9.52;;;15.60;99.90;;;;;;5038573;28;89056;-73
2022/10/18 09:06:23;;;;;;;11.60;7.10;;;15.60;99.90;;;;;;5038591;28;87948;-73
2022/10/18 09:08:56;;;;;;;9.55;6.10;;;15.60;99.90;;;;;;5033941;28;88900;-74
2022/10/18 09:11:38;;;;;;;;;;;15.60;99.90;;;;;;5038631;28;89168;-73
2022/10/18 09:14:26;;;;;;;14.07;6.45;;;15.50;99.90;;;;;;5040857;28;88200;-73
2022/10/18 09:17:30;;;;;;;10.27;5.97;;;15.70;99.90;;;;;;5039939;27;88845;-73
2022/10/18 09:20:12;;;;;;;13.57;6.27;;;15.70;99.90;;;;;;5019268;27;89161;-73
2022/10/18 09:22:46;;;;;;;13.80;6.32;;;15.70;99.90;;;;;;5040172;28;88823;-73
2022/10/18 09:25:25;;;;;;;10.65;5.70;;;15.80;99.90;;;;;;5039793;28;88084;-73
2022/10/18 09:28:03;;;;;;;8.90;6.03;;;15.90;99.90;;;;;;5039679;28;89047;-74
2022/10/18 09:30:53;;;;;;;12.80;4.95;;;16.00;99.90;;;;;;5038295;28;90865;-73
2022/10/18 09:33:40;;;;;;;12.02;3.90;;;16.00;99.90;;;;;;5037959;27;89469;-73
2022/10/18 09:36:17;;;;;;;8.52;2.85;;;16.00;99.90;;;;;;5037999;28;90881;-73
2022/10/18 09:38:54;;;;;;;11.55;2.75;;;16.10;99.90;;;;;;5039431;28;89642;-73
2022/10/18 09:41:29;;;;;;;8.32;3.63;;;16.10;99.90;;;;;;5037974;28;92183;-73
2022/10/18 09:44:05;;;;;;;9.18;2.67;;;16.10;99.90;;;;;;5039442;28;88016;-73
2022/10/18 09:46:38;;;;;;;7.30;2.42;;;16.20;99.90;;;;;;5039617;28;88452;-73
2022/10/18 09:49:25;;;;;;;11.90;2.92;;;16.20;99.90;;;;;;5021126;28;91599;-73
2022/10/18 09:51:54;;;;;;;9.32;2.90;;;16.30;99.90;;;;;;5039302;28;88658;-73
2022/10/18 09:54:21;;;;;;;9.07;2.78;;;16.30;99.90;;;;;;5038088;28;88629;-73
2022/10/18 09:57:09;;;;;;;9.13;3.10;;;16.30;99.90;;;;;;5038094;28;91063;-73
2022/10/18 09:59:41;;;;;;;10.52;3.22;;;16.40;99.90;;;;;;5038013;28;88847;-74
2022/10/18 10:02:13;;;;;;;11.00;2.80;;;16.50;99.90;;;;;;5039200;27;88068;-73
2022/10/18 10:04:40;;;;;;;10.88;3.30;;;16.50;99.90;;;;;;5037394;28;89401;-73
2022/10/18 10:07:19;;;;;;;9.88;2.70;;;16.50;99.90;;;;;;5038858;28;88401;-73
2022/10/18 10:10:07;;;;;;;7.90;3.05;;;16.70;99.90;;;;;;5039073;27;88900;-73
2022/10/18 10:12:36;;;;;;;10.50;3.03;;;16.70;99.90;;;;;;5037837;28;88890;-73
2022/10/18 10:15:17;;;;;;;10.52;2.90;;;16.70;99.90;;;;;;5037400;28;88032;-73
2022/10/18 10:17:54;;;;;;;7.80;2.55;;;16.70;99.90;;;;;;5020584;28;91119;-73
2022/10/18 10:20:43;;;;;;;9.77;2.58;;;16.80;99.90;;;;;;5038999;27;88652;-73
2022/10/18 10:23:27;;;;;;;8.15;2.40;;;16.80;99.90;;;;;;5038699;27;88383;-73
2022/10/18 10:26:00;;;;;;;9.45;2.15;;;16.90;99.90;;;;;;5038914;27;88526;-74
2022/10/18 10:28:29;;;;;;;;;;;16.80;99.90;;;;;;5037959;28;88333;-73
2022/10/18 10:31:25;;;;;;;6.85;2.30;;;16.80;99.90;;;;;;5054812;27;91969;-73
2022/10/18 10:34:19;;;;;;;9.50;2.90;;;16.90;99.90;;;;;;5033553;27;89039;-73
2022/10/18 10:36:53;;;;;;;8.38;2.72;;;17.00;99.90;;;;;;5035945;27;89458;-73
2022/10/18 10:39:22;;;;;;;10.77;3.03;;;17.00;99.90;;;;;;5038420;27;88214;-74
2022/10/18 10:41:58;;;;;;;7.97;2.78;;;17.10;99.90;;;;;;5036921;28;88892;-74
2022/10/18 10:44:29;;;;;;;8.45;2.72;;;17.10;99.90;;;;;;5036682;27;88764;-74
2022/10/18 10:46:56;;;;;;;10.73;3.05;;;17.20;99.90;;;;;;5037472;28;88550;-74
2022/10/18 10:49:44;;;;;;;8.60;2.30;;;17.30;99.90;;;;;;5037474;27;88505;-74
2022/10/18 10:52:20;;;;;;;10.45;2.75;;;17.30;99.90;;;;;;5038076;28;88666;-74
2022/10/18 10:54:56;;;;;;;10.03;2.70;;;17.30;99.90;;;;;;5038407;28;88643;-74
2022/10/18 10:57:46;;;;;;;9.50;2.45;;;17.20;99.90;;;;;;5036629;28;88795;-74
2022/10/18 11:00:38;;;;;;;7.32;2.30;;;17.30;99.90;;;;;;5037856;27;88491;-74
2022/10/18 11:03:17;;;;;;;14.52;2.38;;;17.40;99.90;;;;;;5037897;27;89048;-74
2022/10/18 11:06:00;;;;;;;9.63;2.15;;;17.30;99.90;;;;;;5037912;27;88596;-73
2022/10/18 11:08:34;;;;;;;10.00;2.50;;;17.10;99.90;;;;;;5036916;28;88368;-73
2022/10/18 11:11:27;;;;;;;6.40;1.58;;;17.10;99.90;;;;;;5036376;28;91064;-73
2022/10/18 11:14:03;;;;;;;8.43;1.88;;;17.10;99.90;;;;;;5038058;27;89054;-74
2022/10/18 11:17:03;;;;;;;8.80;1.88;;;17.10;99.90;;;;;;5036724;28;90246;-74
2022/10/18 11:19:48;;;;;;;9.57;2.17;;;17.20;99.90;;;;;;5037749;27;88085;-74
2022/10/18 11:22:20;;;;;;;9.65;1.98;;;17.30;99.90;;;;;;5037939;27;87989;-73
2022/10/18 11:24:47;;;;;;;6.38;2.17;;;17.40;99.90;;;;;;5037544;28;90913;-74
2022/10/18 11:27:33;;;;;;;8.52;2.80;;;17.40;99.90;;;;;;5036062;28;91679;-74
2022/10/18 11:30:27;;;;;;;8.95;2.25;;;17.60;99.90;;;;;;5037932;28;88011;-74
2022/10/18 11:33:02;;;;;;;9.53;1.90;;;17.70;99.90;;;;;;5019743;28;91191;-73
2022/10/18 11:35:28;;;;;;;9.05;2.53;;;17.70;99.90;;;;;;5037846;27;88659;-73
2022/10/18 11:38:54;;;;;;;9.05;2.05;;;17.60;99.90;;;;;;5036306;28;91115;-74
2022/10/18 11:41:45;;;;;;;7.95;2.20;;;17.70;99.90;;;;;;5003611;27;88114;-74
2022/10/18 11:44:15;;;;;;;12.68;1.70;;;17.60;99.90;;;;;;5035980;28;90912;-73
2022/10/18 11:46:54;;;;;;;9.90;2.10;;;17.50;99.90;;;;;;5036173;28;92438;-74
2022/10/18 11:49:50;;;;;;;5.70;1.70;;;17.50;99.90;;;;;;5036281;28;88655;-74
2022/10/18 11:52:36;;;;;;;9.77;1.98;;;17.60;99.90;;;;;;5017760;28;89394;-74
2022/10/18 11:55:24;;;;;;;7.43;1.80;;;17.70;99.90;;;;;;5031516;28;88298;-74
2022/10/18 11:58:06;;;;;;;7.18;1.85;;;17.70;99.90;;;;;;5020807;28;88905;-74
2022/10/18 12:00:48;;;;;;;4.07;1.63;;;17.60;99.90;;;;;;5019760;28;88513;-74
2022/10/18 12:03:17;;;;;;;8.93;1.92;;;17.70;99.90;;;;;;5036148;28;88048;-74
2022/10/18 12:05:47;;;;;;;6.70;2.13;;;17.70;99.90;;;;;;5020718;28;88501;-74
2022/10/18 12:08:25;;;;;;;5.78;1.90;;;17.80;99.90;;;;;;5002455;28;89948;-74
2022/10/18 12:10:56;;;;;;;9.90;2.25;;;17.90;99.90;;;;;;5021171;28;87441;-74
2022/10/18 12:13:42;;;;;;;9.23;2.33;;;18.00;99.90;;;;;;5036083;28;91045;-74
2022/10/18 12:16:11;;;;;;;7.40;1.98;;;18.20;99.90;;;;;;5019281;28;90519;-74
2022/10/18 12:19:03;;;;;;;8.55;1.77;;;18.20;99.90;;;;;;5017806;28;101802;-74
2022/10/18 12:21:33;;;;;;;10.35;2.40;;;18.30;99.90;;;;;;5015065;28;89140;-74
2022/10/18 12:24:18;;;;;;;7.45;1.50;;;18.10;99.90;;;;;;5020453;28;87887;-74
2022/10/18 12:26:49;;;;;;;4.53;1.08;;;18.20;99.90;;;;;;5019350;28;87962;-74
2022/10/18 12:29:45;;;;;;;7.82;1.67;;;18.10;99.90;;;;;;5020250;28;88337;-74
2022/10/18 12:32:19;;;;;;;9.13;2.00;;;18.10;99.90;;;;;;5012992;28;93636;-74
2022/10/18 12:34:53;;;;;;;7.93;1.83;;;18.10;99.90;;;;;;5020551;28;88170;-74
2022/10/18 12:37:38;;;;;;;7.05;1.50;;;18.20;99.90;;;;;;5020593;28;88343;-74
2022/10/18 12:40:14;;;;;;;6.18;1.67;;;18.10;99.90;;;;;;5019355;28;88835;-74
2022/10/18 12:42:49;;;;;;;4.68;1.38;;;18.20;99.90;;;;;;5020523;28;88170;-74
2022/10/18 12:45:34;;;;;;;12.30;1.92;;;18.00;99.90;;;;;;5018269;28;89466;-74
2022/10/18 12:48:05;;;;;;;6.85;1.77;;;18.20;99.90;;;;;;5020132;28;94619;-74
2022/10/18 12:50:37;;;;;;;9.13;2.13;;;18.10;99.90;;;;;;5020125;28;88758;-74
2022/10/18 12:53:22;;;;;;;10.88;1.83;;;18.20;99.90;;;;;;5018677;28;91237;-74
2022/10/18 12:55:52;;;;;;;7.72;1.77;;;18.50;99.90;;;;;;5020290;28;88636;-74